Time;durP1;ratioP1;P1;durP2;ratioP2;P2;SDS_P1;SDS_P2;PMS_P1;PMS_P2;Temp;Humidity;BMP_temperature;BMP_pressure;BME280_temperature;BME280_humidity;BME280_pressure;Samples;Min_cycle;Max_cycle;Signal;HPM_P1;HPM_P2
2023/02/11 00:02:22;;;;;;;;;;;5.30;99.90;;;;;;5072925;28;19924;-72
2023/02/11 00:04:50;;;;;;;;;;;5.30;99.90;;;;;;5074118;28;20407;-70
2023/02/11 00:07:16;;;;;;;;;;;5.20;99.90;;;;;;5071997;28;20019;-71
2023/02/11 00:09:43;;;;;;;;;;;5.20;99.90;;;;;;5073997;28;19928;-70
2023/02/11 00:12:10;;;;;;;;;;;5.20;99.90;;;;;;5073016;28;19928;-71
2023/02/11 00:14:36;;;;;;;;;;;5.10;99.90;;;;;;5072329;28;19924;-71
2023/02/11 00:17:03;;;;;;;;;;;5.20;99.90;;;;;;5072346;28;19932;-71
2023/02/11 00:19:30;;;;;;;;;;;5.20;99.90;;;;;;5072242;28;20023;-72
2023/02/11 00:21:58;;;;;;;;;;;5.10;99.90;;;;;;5072351;28;19946;-70
2023/02/11 00:24:24;;;;;;;;;;;5.10;99.90;;;;;;5073918;28;19924;-71
2023/02/11 00:26:51;;;;;;;;;;;5.10;99.90;;;;;;5074016;28;20050;-72
2023/02/11 00:29:18;;;;;;;;;;;5.10;99.90;;;;;;5071884;28;19940;-71
2023/02/11 00:31:45;;;;;;;;;;;5.10;99.90;;;;;;5072349;28;19931;-71
2023/02/11 00:34:11;;;;;;;;;;;5.10;99.90;;;;;;5073667;28;19960;-72
2023/02/11 00:36:38;;;;;;;;;;;5.10;99.90;;;;;;5070937;28;19959;-72
2023/02/11 00:39:06;;;;;;;;;;;5.10;99.90;;;;;;5072863;28;19924;-72
2023/02/11 00:41:33;;;;;;;;;;;5.20;99.90;;;;;;5071265;28;19934;-72
2023/02/11 00:44:00;;;;;;;;;;;5.20;99.90;;;;;;5070738;28;19924;-72
2023/02/11 00:46:27;;;;;;;;;;;5.20;99.90;;;;;;5068222;28;19926;-72
2023/02/11 00:48:56;;;;;;;;;;;5.10;99.90;;;;;;5072554;28;20011;-72
2023/02/11 00:51:23;;;;;;;;;;;5.10;99.90;;;;;;5068302;28;19978;-72
2023/02/11 00:53:49;;;;;;;;;;;5.10;99.90;;;;;;5073169;28;19925;-72
2023/02/11 00:56:17;;;;;;;;;;;5.10;99.90;;;;;;5070402;28;20303;-71
2023/02/11 00:58:44;;;;;;;;;;;5.00;99.90;;;;;;5070389;28;19924;-73
2023/02/11 01:01:11;;;;;;;;;;;5.00;99.90;;;;;;5071127;28;19932;-71
2023/02/11 01:03:38;;;;;;;;;;;5.00;99.90;;;;;;5074878;28;19936;-71
2023/02/11 01:06:05;;;;;;;;;;;5.00;99.90;;;;;;5074313;28;19931;-72
2023/02/11 01:08:32;;;;;;;;;;;5.00;99.90;;;;;;5072980;28;19924;-72
2023/02/11 01:11:00;;;;;;;;;;;5.00;99.90;;;;;;5069751;28;20012;-72
2023/02/11 01:13:28;;;;;;;;;;;5.00;99.90;;;;;;5070813;28;19931;-72
2023/02/11 01:15:56;;;;;;;;;;;5.00;99.90;;;;;;5071454;28;20019;-72
2023/02/11 01:18:22;;;;;;;;;;;5.00;99.90;;;;;;5054177;28;19925;-72
2023/02/11 01:20:50;;;;;;;;;;;5.00;99.90;;;;;;5072634;28;20039;-72
2023/02/11 01:23:17;;;;;;;;;;;5.10;99.90;;;;;;5069147;28;19925;-72
2023/02/11 01:25:44;;;;;;;;;;;5.10;99.90;;;;;;5071031;28;19994;-71
2023/02/11 01:28:15;;;;;;;;;;;5.10;99.90;;;;;;5069860;28;20325;-71
2023/02/11 01:30:43;;;;;;;;;;;5.10;99.90;;;;;;5071148;28;20007;-72
2023/02/11 01:33:10;;;;;;;;;;;5.10;99.90;;;;;;5072717;28;20011;-71
2023/02/11 01:35:37;;;;;;;;;;;5.20;99.90;;;;;;5072903;28;20008;-72
2023/02/11 01:38:04;;;;;;;;;;;5.10;99.90;;;;;;5074216;28;20376;-71
2023/02/11 01:40:31;;;;;;;;;;;5.10;99.90;;;;;;5071082;28;19964;-71
2023/02/11 01:42:57;;;;;;;;;;;5.10;99.90;;;;;;5071184;28;19924;-71
2023/02/11 01:45:55;;;;;;;;;;;5.20;99.90;;;;;;5071453;28;19960;-71
2023/02/11 01:48:24;;;;;;;;;;;5.20;99.90;;;;;;5070373;28;19925;-71
2023/02/11 01:50:53;;;;;;;;;;;5.30;99.90;;;;;;5069667;28;19933;-71
2023/02/11 01:58:48;;;;;;;;;;;5.30;99.90;;;;;;5041977;28;20411;-71
2023/02/11 02:01:19;;;;;;;;;;;5.30;99.90;;;;;;5069703;28;20027;-72
2023/02/11 02:03:48;;;;;;;;;;;5.40;99.90;;;;;;5071816;28;20388;-71
2023/02/11 02:06:16;;;;;;;;;;;5.40;99.90;;;;;;5069325;28;19968;-72
2023/02/11 02:08:45;;;;;;;;;;;5.40;99.90;;;;;;5071915;28;20007;-72
2023/02/11 02:11:12;;;;;;;;;;;5.40;99.90;;;;;;5058153;28;19925;-72
2023/02/11 02:13:38;;;;;;;;;;;5.40;99.90;;;;;;5072757;28;20360;-72
2023/02/11 02:16:07;;;;;;;;;;;5.50;99.90;;;;;;5070539;28;19932;-73
2023/02/11 02:18:39;;;;;;;;;;;5.50;99.90;;;;;;5071297;28;20007;-72
2023/02/11 02:21:22;;;;;;;;;;;5.50;99.90;;;;;;5068904;28;20023;-72
2023/02/11 02:23:55;;;;;;;;;;;5.50;99.90;;;;;;5059210;28;19924;-72
2023/02/11 02:26:40;;;;;;;;;;;5.50;99.90;;;;;;5064605;28;19976;-73
2023/02/11 02:29:21;;;;;;;;;;;5.50;99.90;;;;;;5065620;28;19932;-72
2023/02/11 02:31:57;;;;;;;;;;;5.60;99.90;;;;;;5057633;28;19931;-72
2023/02/11 02:34:29;;;;;;;;;;;5.60;99.90;;;;;;5068827;28;19925;-72
2023/02/11 02:37:00;;;;;;;;;;;5.60;99.90;;;;;;5068791;28;19925;-71
2023/02/11 02:39:31;;;;;;;;;;;5.70;99.90;;;;;;5069976;28;19931;-72
2023/02/11 02:41:57;;;;;;;;;;;5.70;99.90;;;;;;5067951;28;19931;-72
2023/02/11 02:44:24;;;;;;;;;;;5.70;99.90;;;;;;5069962;28;19924;-72
2023/02/11 02:46:51;;;;;;;;;;;5.70;99.90;;;;;;5070383;28;19931;-72
2023/02/11 02:49:17;;;;;;;;;;;5.70;99.90;;;;;;5067852;28;20009;-72
2023/02/11 02:51:52;;;;;;;;;;;5.80;99.90;;;;;;5069381;28;19930;-72
2023/02/11 02:54:29;;;;;;;;;;;5.80;99.90;;;;;;5070042;28;19935;-72
2023/02/11 02:56:57;;;;;;;;;;;5.70;99.90;;;;;;5068114;28;20020;-72
2023/02/11 02:59:32;;;;;;;;;;;5.80;99.90;;;;;;5070542;28;19931;-72
2023/02/11 03:02:02;;;;;;;;;;;5.80;99.90;;;;;;5055059;28;19925;-73
2023/02/11 03:04:32;;;;;;;;;;;5.80;99.90;;;;;;5066939;28;19925;-72
2023/02/11 03:07:02;;;;;;;;;;;5.80;99.90;;;;;;5071031;28;20035;-72
2023/02/11 03:09:31;;;;;;;;;;;5.80;99.90;;;;;;5065936;28;20001;-72
2023/02/11 03:11:59;;;;;;;;;;;5.80;99.90;;;;;;5070972;28;19925;-73
2023/02/11 03:14:26;;;;;;;;;;;5.80;99.90;;;;;;5069212;28;20247;-71
2023/02/11 03:16:54;;;;;;;;;;;5.80;99.90;;;;;;5070947;28;19931;-71
2023/02/11 03:19:23;;;;;;;;;;;5.80;99.90;;;;;;5069068;28;19928;-71
2023/02/11 03:21:51;;;;;;;;;;;5.80;99.90;;;;;;5069955;28;20030;-71
2023/02/11 03:24:21;;;;;;;;;;;5.80;99.90;;;;;;5065617;28;19978;-71
2023/02/11 03:26:49;;;;;;;;;;;5.80;99.90;;;;;;5069850;28;20384;-71
2023/02/11 03:29:18;;;;;;;;;;;5.80;99.90;;;;;;5069316;28;20396;-71
2023/02/11 03:31:50;;;;;;;;;;;5.80;99.90;;;;;;5066292;28;19925;-71
2023/02/11 03:34:21;;;;;;;;;;;5.80;99.90;;;;;;5062822;28;19931;-71
2023/02/11 03:36:50;;;;;;;;;;;5.80;99.90;;;;;;5070867;28;19924;-71
2023/02/11 03:39:19;;;;;;;;;;;5.80;99.90;;;;;;5066241;28;20011;-73
2023/02/11 03:41:48;;;;;;;;;;;5.80;99.90;;;;;;5069474;28;20458;-72
2023/02/11 03:44:16;;;;;;;;;;;5.80;99.90;;;;;;5066796;28;19924;-72
2023/02/11 03:46:45;;;;;;;;;;;5.80;99.90;;;;;;5067374;28;19931;-72
2023/02/11 03:49:13;;;;;;;;;;;5.80;99.90;;;;;;5060810;28;20413;-73
2023/02/11 03:51:40;;;;;;;;;;;5.80;99.90;;;;;;5059013;28;19925;-72
2023/02/11 03:54:09;;;;;;;;;;;5.80;99.90;;;;;;5057057;28;19932;-72
2023/02/11 03:56:38;;;;;;;;;;;5.80;99.90;;;;;;5068766;28;19931;-73
2023/02/11 03:59:07;;;;;;;;;;;5.80;99.90;;;;;;5072688;28;20401;-73
2023/02/11 04:01:34;;;;;;;;;;;5.80;99.90;;;;;;5061303;28;20336;-73
2023/02/11 04:04:00;;;;;;;;;;;5.80;99.90;;;;;;5070971;28;19931;-73
2023/02/11 04:06:27;;;;;;;;;;;5.80;99.90;;;;;;5072890;28;20340;-73
2023/02/11 04:08:54;;;;;;;;;;;5.80;99.90;;;;;;5070623;28;20357;-73
2023/02/11 04:11:21;;;;;;;;;;;5.80;99.90;;;;;;5069758;28;20449;-73
2023/02/11 04:13:47;;;;;;;;;;;5.80;99.90;;;;;;5070246;28;19960;-73
2023/02/11 04:16:15;;;;;;;;;;;5.90;99.90;;;;;;5072164;28;20019;-72
2023/02/11 04:18:42;;;;;;;;;;;5.80;99.90;;;;;;5069455;28;19925;-73
2023/02/11 04:21:08;;;;;;;;;;;5.80;99.90;;;;;;5071429;28;19931;-73
2023/02/11 04:23:35;;;;;;;;;;;5.80;99.90;;;;;;5073085;28;20031;-72
2023/02/11 04:26:02;;;;;;;;;;;5.80;99.90;;;;;;5068344;28;19924;-72
2023/02/11 04:28:28;;;;;;;;;;;5.80;99.90;;;;;;5071862;28;20011;-73
2023/02/11 04:30:55;;;;;;;;;;;5.90;99.90;;;;;;5071382;28;19992;-73
2023/02/11 04:33:23;;;;;;;;;;;5.80;99.90;;;;;;5075966;28;19928;-72
2023/02/11 04:35:50;;;;;;;;;;;5.90;99.90;;;;;;5070435;28;19931;-73
2023/02/11 04:38:17;;;;;;;;;;;5.90;99.90;;;;;;5071246;28;19928;-72
2023/02/11 04:40:43;;;;;;;;;;;5.90;99.90;;;;;;5068258;28;20383;-72
2023/02/11 04:43:10;;;;;;;;;;;5.90;99.90;;;;;;5070651;28;19924;-71
2023/02/11 04:45:36;;;;;;;;;;;5.90;99.90;;;;;;5067570;28;19925;-72
2023/02/11 04:48:03;;;;;;;;;;;5.90;99.90;;;;;;5066477;28;20358;-72
2023/02/11 04:50:31;;;;;;;;;;;5.90;99.90;;;;;;5067879;28;20276;-72
2023/02/11 04:52:58;;;;;;;;;;;5.90;99.90;;;;;;5070705;28;19931;-72
2023/02/11 04:55:25;;;;;;;;;;;5.90;99.90;;;;;;5065252;28;19924;-72
2023/02/11 04:57:51;;;;;;;;;;;5.90;99.90;;;;;;5071699;28;19924;-72
2023/02/11 05:00:18;;;;;;;;;;;5.90;99.90;;;;;;5070822;28;20031;-71
2023/02/11 05:02:45;;;;;;;;;;;5.90;99.90;;;;;;5072515;28;20264;-74
2023/02/11 05:05:11;;;;;;;;;;;5.90;99.90;;;;;;5070408;28;20298;-70
2023/02/11 05:07:39;;;;;;;;;;;5.90;99.90;;;;;;5071705;28;19926;-73
2023/02/11 05:10:06;;;;;;;;;;;5.80;99.90;;;;;;5067701;28;19924;-70
2023/02/11 05:12:33;;;;;;;;;;;5.90;99.90;;;;;;5071408;28;19931;-72
2023/02/11 05:14:59;;;;;;;;;;;5.90;99.90;;;;;;5070620;28;19925;-72
2023/02/11 05:17:26;;;;;;;;;;;5.80;99.90;;;;;;5070579;28;20011;-70
2023/02/11 05:19:53;;;;;;;;;;;5.80;99.90;;;;;;5069707;28;19935;-70
2023/02/11 05:22:20;;;;;;;;;;;5.80;99.90;;;;;;5071195;28;19971;-70
2023/02/11 05:24:49;;;;;;;;;;;5.80;99.90;;;;;;5067275;28;19931;-71
2023/02/11 05:27:15;;;;;;;;;;;5.90;99.90;;;;;;5073366;28;20600;-73
2023/02/11 05:29:42;;;;;;;;;;;5.90;99.90;;;;;;5070391;28;20434;-72
2023/02/11 05:32:08;;;;;;;;;;;5.90;99.90;;;;;;5069088;28;20376;-72
2023/02/11 05:34:35;;;;;;;;;;;5.90;99.90;;;;;;5069607;28;20375;-72
2023/02/11 05:37:02;;;;;;;;;;;5.90;99.90;;;;;;5071005;28;20518;-72
2023/02/11 05:39:28;;;;;;;;;;;5.90;99.90;;;;;;5069556;28;19955;-72
2023/02/11 05:41:56;;;;;;;;;;;5.90;99.90;;;;;;5068557;28;19929;-70
2023/02/11 05:44:23;;;;;;;;;;;5.90;99.90;;;;;;5069627;28;19924;-70
2023/02/11 05:46:50;;;;;;;;;;;5.90;99.90;;;;;;5071018;28;19994;-72
2023/02/11 05:49:19;;;;;;;;;;;5.90;99.90;;;;;;5065548;28;19925;-71
2023/02/11 05:51:46;;;;;;;;;;;5.90;99.90;;;;;;5069788;28;19925;-70
2023/02/11 05:54:15;;;;;;;;;;;5.90;99.90;;;;;;5068250;28;19933;-70
2023/02/11 05:56:42;;;;;;;;;;;5.90;99.90;;;;;;5059714;28;19924;-70
2023/02/11 05:59:12;;;;;;;;;;;5.90;99.90;;;;;;5069717;28;19975;-70
2023/02/11 06:01:38;;;;;;;;;;;5.90;99.90;;;;;;5068236;28;20535;-71
2023/02/11 06:04:05;;;;;;;;;;;5.90;99.90;;;;;;5069158;28;20348;-71
2023/02/11 06:06:32;;;;;;;;;;;5.90;99.90;;;;;;5061727;28;19925;-71
2023/02/11 06:08:58;;;;;;;;;;;5.90;99.90;;;;;;5065264;28;20071;-71
2023/02/11 06:11:25;;;;;;;;;;;5.90;99.90;;;;;;5068909;28;20023;-72
2023/02/11 06:13:52;;;;;;;;;;;5.90;99.90;;;;;;5075505;28;19931;-71
2023/02/11 06:16:20;;;;;;;;;;;5.90;99.90;;;;;;5076952;28;19988;-71
2023/02/11 06:18:46;;;;;;;;;;;5.90;99.90;;;;;;5067319;28;20019;-70
2023/02/11 06:21:13;;;;;;;;;;;5.90;99.90;;;;;;5070504;28;20439;-71
2023/02/11 06:23:40;;;;;;;;;;;5.90;99.90;;;;;;5065800;28;20517;-70
2023/02/11 06:26:08;;;;;;;;;;;5.90;99.90;;;;;;5067646;28;19960;-71
2023/02/11 06:28:35;;;;;;;;;;;5.90;99.90;;;;;;5069843;28;19931;-71
2023/02/11 06:31:05;;;;;;;;;;;5.80;99.90;;;;;;5061646;28;19924;-71
2023/02/11 06:33:33;;;;;;;;;;;5.70;99.90;;;;;;5051775;28;19925;-71
2023/02/11 06:36:00;;;;;;;;;;;5.70;99.90;;;;;;5068650;28;20383;-69
2023/02/11 06:38:27;;;;;;;;;;;5.60;99.90;;;;;;5066393;28;19932;-69
2023/02/11 06:40:54;;;;;;;;;;;5.60;99.90;;;;;;5066157;28;19939;-71
2023/02/11 06:43:20;;;;;;;;;;;5.60;99.90;;;;;;5069395;28;19947;-72
2023/02/11 06:45:52;;;;;;;;;;;5.60;99.90;;;;;;5067661;28;19931;-71
2023/02/11 06:48:19;;;;;;;;;;;5.70;99.90;;;;;;5069837;28;19931;-70
2023/02/11 06:50:47;;;;;;;;;;;5.80;99.90;;;;;;5068530;28;19931;-71
2023/02/11 06:53:13;;;;;;;;;;;5.80;99.90;;;;;;5069577;28;19928;-71
2023/02/11 06:55:40;;;;;;;;;;;5.80;99.90;;;;;;5068807;28;19931;-72
2023/02/11 06:58:07;;;;;;;;;;;5.80;99.90;;;;;;5069073;28;20015;-71
2023/02/11 07:00:34;;;;;;;;;;;5.80;99.90;;;;;;5067990;28;20446;-72
2023/02/11 07:03:00;;;;;;;;;;;5.90;99.90;;;;;;5068216;28;19932;-72
2023/02/11 07:05:27;;;;;;;;;;;5.90;99.90;;;;;;5067226;28;20015;-72
2023/02/11 07:07:55;;;;;;;;;;;5.90;99.90;;;;;;5067523;28;19967;-72
2023/02/11 07:10:22;;;;;;;;;;;5.90;99.90;;;;;;5069792;28;19930;-73
2023/02/11 07:12:48;;;;;;;;;;;5.90;99.90;;;;;;5068688;28;20395;-71
2023/02/11 07:15:15;;;;;;;;;;;5.90;99.90;;;;;;5068933;28;20322;-71
2023/02/11 07:17:41;;;;;;;;;;;6.00;99.90;;;;;;5066098;28;20417;-73
2023/02/11 07:20:13;;;;;;;;;;;6.00;99.90;;;;;;5067962;28;19928;-73
2023/02/11 07:22:40;;;;;;;;;;;6.00;99.90;;;;;;5066892;28;19924;-74
2023/02/11 07:25:08;;;;;;;;;;;6.10;99.90;;;;;;5068557;28;19924;-73
2023/02/11 07:27:35;;;;;;;;;;;6.10;99.90;;;;;;5066438;28;19931;-73
2023/02/11 07:30:01;;;;;;;;;;;6.10;99.90;;;;;;5068208;28;20019;-74
2023/02/11 07:32:29;;;;;;;;;;;6.10;99.90;;;;;;5067374;28;19977;-73
2023/02/11 07:34:56;;;;;;;;;;;6.20;99.90;;;;;;5068697;28;19924;-73
2023/02/11 07:37:26;;;;;;;;;;;6.20;99.90;;;;;;5070087;28;19924;-72
2023/02/11 07:39:56;;;;;;;;;;;6.30;99.90;;;;;;5069203;28;19924;-73
2023/02/11 07:42:24;;;;;;;;;;;6.30;99.90;;;;;;5072429;28;19982;-75
2023/02/11 07:44:51;;;;;;;;;;;6.30;99.90;;;;;;5071365;28;20338;-73
2023/02/11 07:47:18;;;;;;;;;;;6.40;99.90;;;;;;5072606;28;19978;-72
2023/02/11 07:49:45;;;;;;;;;;;6.40;99.90;;;;;;5068823;28;20547;-73
2023/02/11 07:52:12;;;;;;;;;;;6.40;99.90;;;;;;5074445;28;20108;-76
2023/02/11 07:54:39;;;;;;;;;;;6.50;99.90;;;;;;5068510;28;19925;-74
2023/02/11 07:57:06;;;;;;;;;;;6.50;99.90;;;;;;5066221;28;19932;-73
2023/02/11 07:59:34;;;;;;;;;;;6.50;99.90;;;;;;5069216;28;19925;-74
2023/02/11 08:02:01;;;;;;;;;;;6.60;99.90;;;;;;5073712;28;19932;-75
2023/02/11 08:04:28;;;;;;;;;;;6.60;99.90;;;;;;5071266;28;20290;-74
2023/02/11 08:06:56;;;;;;;;;;;6.60;99.90;;;;;;5074201;28;19935;-70
2023/02/11 08:09:23;;;;;;;;;;;6.60;99.90;;;;;;5072256;28;19931;-72
2023/02/11 08:11:49;;;;;;;;;;;6.60;99.90;;;;;;5074039;28;20431;-72
2023/02/11 08:14:16;;;;;;;;;;;6.70;99.90;;;;;;5070822;28;19964;-71
2023/02/11 08:16:44;;;;;;;;;;;6.70;99.90;;;;;;5073552;28;19982;-71
2023/02/11 08:19:12;;;;;;;;;;;6.70;99.90;;;;;;5067938;28;19924;-71
2023/02/11 08:21:39;;;;;;;;;;;6.70;99.90;;;;;;5072389;28;19924;-71
2023/02/11 08:24:06;;;;;;;;;;;6.70;99.90;;;;;;5072539;28;20680;-71
2023/02/11 08:26:33;;;;;;;;;;;6.70;99.90;;;;;;5073317;28;19924;-71
2023/02/11 08:29:01;;;;;;;;;;;6.70;99.90;;;;;;5071601;28;19990;-72
2023/02/11 08:31:29;;;;;;;;;;;6.70;99.90;;;;;;5073582;28;20039;-72
2023/02/11 08:33:57;;;;;;;;;;;6.70;99.90;;;;;;5069574;28;19932;-72
2023/02/11 08:36:26;;;;;;;;;;;6.80;99.90;;;;;;5070251;28;19928;-72
2023/02/11 08:38:54;;;;;;;;;;;6.80;99.90;;;;;;5068163;28;20011;-72
2023/02/11 08:41:20;;;;;;;;;;;6.80;99.90;;;;;;5068960;28;20019;-72
2023/02/11 08:43:48;;;;;;;;;;;6.80;99.90;;;;;;5067406;28;19925;-71
2023/02/11 08:46:16;;;;;;;;;;;6.80;99.90;;;;;;5071856;28;19932;-73
2023/02/11 08:48:43;;;;;;;;;;;6.80;99.90;;;;;;5068193;28;20000;-72
2023/02/11 08:51:14;;;;;;;;;;;6.80;99.90;;;;;;5060936;28;19929;-73
2023/02/11 08:53:40;;;;;;;;;;;6.90;99.90;;;;;;5067144;28;20027;-72
2023/02/11 08:56:09;;;;;;;;;;;6.90;99.90;;;;;;5067162;28;20402;-73
2023/02/11 08:58:37;;;;;;;;;;;6.90;99.90;;;;;;5068092;28;19968;-72
2023/02/11 09:01:08;;;;;;;;;;;7.00;99.90;;;;;;5067325;28;19932;-73
2023/02/11 09:03:35;;;;;;;;;;;7.00;99.90;;;;;;5070378;28;20391;-74
2023/02/11 09:06:04;;;;;;;;;;;7.00;99.90;;;;;;5065320;28;19936;-71
2023/02/11 09:08:33;;;;;;;;;;;7.00;99.90;;;;;;5065628;28;20020;-73
2023/02/11 09:11:00;;;;;;;;;;;7.00;99.90;;;;;;5063350;28;19924;-73
2023/02/11 09:13:27;;;;;;;;;;;7.00;99.90;;;;;;5059007;28;19925;-72
2023/02/11 09:15:53;;;;;;;;;;;7.00;99.90;;;;;;5063113;28;19967;-73
2023/02/11 09:18:23;;;;;;;;;;;7.10;99.90;;;;;;5061222;28;20055;-72
2023/02/11 09:20:49;;;;;;;;;;;7.10;99.90;;;;;;5061945;28;19924;-73
2023/02/11 09:23:17;;;;;;;;;;;7.20;99.90;;;;;;5065312;28;19935;-75
2023/02/11 09:25:45;;;;;;;;;;;7.30;99.90;;;;;;5063317;28;20530;-72
2023/02/11 09:28:11;;;;;;;;;;;7.30;99.90;;;;;;5067080;28;20011;-73
2023/02/11 09:30:38;;;;;;;;;;;7.30;99.90;;;;;;5060479;28;19968;-73
2023/02/11 09:33:05;;;;;;;;;;;7.40;99.90;;;;;;5061790;28;20280;-73
2023/02/11 09:35:32;;;;;;;;;;;7.50;99.90;;;;;;5062337;28;19924;-74
2023/02/11 09:37:59;;;;;;;;;;;7.50;99.90;;;;;;5062610;28;19928;-73
2023/02/11 09:40:26;;;;;;;;;;;7.60;99.90;;;;;;5061506;28;19966;-72
2023/02/11 09:42:56;;;;;;;;;;;7.60;99.90;;;;;;5063360;28;20307;-72
2023/02/11 09:45:24;;;;;;;;;;;7.70;99.90;;;;;;5059280;28;19994;-69
2023/02/11 09:47:53;;;;;;;;;;;7.70;99.90;;;;;;5061545;28;20474;-72
2023/02/11 09:50:23;;;;;;;;;;;7.70;99.90;;;;;;5063138;28;19990;-72
2023/02/11 09:52:53;;;;;;;;;;;7.70;99.90;;;;;;5059506;28;20362;-72
2023/02/11 09:55:21;;;;;;;;;;;7.70;99.90;;;;;;5065371;28;19940;-72
2023/02/11 09:57:48;;;;;;;;;;;7.80;99.90;;;;;;5062916;28;19928;-72
2023/02/11 10:00:19;;;;;;;;;;;7.80;99.90;;;;;;5063667;28;19930;-72
2023/02/11 10:02:54;;;;;;;;;;;7.80;99.90;;;;;;5063727;28;19954;-72
2023/02/11 10:05:29;;;;;;;;;;;7.80;99.90;;;;;;5064051;28;19924;-72
2023/02/11 10:07:59;;;;;;;;;;;7.80;99.90;;;;;;5061369;28;19932;-72
2023/02/11 10:10:39;;;;;;;;;;;7.80;99.90;;;;;;5063864;28;19924;-71
2023/02/11 10:13:17;;;;;;;;;;;7.90;99.90;;;;;;5064931;28;19979;-74
2023/02/11 10:15:49;;;;;;;;;;;7.90;99.90;;;;;;5066670;28;19924;-73
2023/02/11 10:18:30;;;;;;;;;;;7.90;99.90;;;;;;5067003;28;20069;-72
2023/02/11 10:21:04;;;;;;;;;;;7.90;99.90;;;;;;5066872;28;19933;-72
2023/02/11 10:23:33;;;;;;;;;;;7.90;99.90;;;;;;5067272;28;19977;-72
2023/02/11 10:26:00;;;;;;;;;;;7.90;99.90;;;;;;5066371;28;20328;-73
2023/02/11 10:28:29;;;;;;;;;;;7.90;99.90;;;;;;5069994;28;20006;-73
2023/02/11 10:30:59;;;;;;;;;;;7.90;99.90;;;;;;5068634;28;20052;-73
2023/02/11 10:33:27;;;;;;;;;;;8.00;99.90;;;;;;5065253;28;19924;-72
2023/02/11 10:35:54;;;;;;;;;;;8.00;99.90;;;;;;5068780;28;19924;-72
2023/02/11 10:38:21;;;;;;;;;;;8.00;99.90;;;;;;5066158;28;19939;-73
2023/02/11 10:40:47;;;;;;;;;;;8.00;99.90;;;;;;5067110;28;20007;-72
2023/02/11 10:43:17;;;;;;;;;;;8.10;99.90;;;;;;5064905;28;20496;-72
2023/02/11 10:45:44;;;;;;;;;;;8.10;99.90;;;;;;5066674;28;20026;-72
2023/02/11 10:48:29;;;;;;;;;;;8.10;99.90;;;;;;5067277;28;20023;-73
2023/02/11 10:51:06;;;;;;;;;;;8.10;99.90;;;;;;5065785;28;20346;-73
2023/02/11 10:53:34;;;;;;;;;;;8.10;99.90;;;;;;5065284;28;20019;-73
2023/02/11 10:56:02;;;;;;;;;;;8.10;99.90;;;;;;5063552;28;19931;-76
2023/02/11 10:58:30;;;;;;;;;;;8.10;99.90;;;;;;5062804;28;19986;-74
2023/02/11 11:00:58;;;;;;;;;;;8.10;99.90;;;;;;5062441;28;19930;-74
2023/02/11 11:03:29;;;;;;;;;;;8.20;99.90;;;;;;5059232;28;19924;-73
2023/02/11 11:05:58;;;;;;;;;;;8.20;99.90;;;;;;5058181;28;20435;-72
2023/02/11 11:08:37;;;;;;;;;;;8.20;99.90;;;;;;5065090;28;19925;-73
2023/02/11 11:11:07;;;;;;;;;;;8.20;99.90;;;;;;5065925;28;19943;-74
2023/02/11 11:13:34;;;;;;;;;;;8.40;99.90;;;;;;5063170;28;19936;-75
2023/02/11 11:16:24;;;;;;;;;;;8.30;99.90;;;;;;5077215;28;19924;-76
2023/02/11 11:18:51;;;;;;;;;;;8.40;99.90;;;;;;5071164;28;19931;-74
2023/02/11 11:21:19;;;;;;;;;;;8.40;99.90;;;;;;5063549;28;19933;-76
2023/02/11 11:23:49;;;;;;;;;;;8.40;99.90;;;;;;5063795;28;19924;-73
2023/02/11 11:26:16;;;;;;;;;;;8.40;99.90;;;;;;5060040;28;20396;-73
2023/02/11 11:28:52;;;;;;;;;;;8.40;99.90;;;;;;5064539;28;19978;-74
2023/02/11 11:31:19;;;;;;;;;;;8.40;99.90;;;;;;5062922;28;19935;-72
2023/02/11 11:33:47;;;;;;;;;;;8.40;99.90;;;;;;5069239;28;20012;-75
2023/02/11 11:36:16;;;;;;;;;;;8.50;99.90;;;;;;5067621;28;19931;-73
2023/02/11 11:38:44;;;;;;;;;;;8.50;99.90;;;;;;5065542;28;20298;-74
2023/02/11 11:41:20;;;;;;;;;;;8.50;99.90;;;;;;5063180;28;20000;-79
2023/02/11 11:43:57;;;;;;;;;;;8.50;99.90;;;;;;5068543;28;20310;-73
2023/02/11 11:46:24;;;;;;;;;;;8.50;99.90;;;;;;5061697;28;19931;-75
2023/02/11 11:48:55;;;;;;;;;;;8.60;99.90;;;;;;5063206;28;19931;-73
2023/02/11 11:51:23;;;;;;;;;;;8.50;99.90;;;;;;5059956;28;19925;-73
2023/02/11 11:53:53;;;;;;;;;;;8.60;99.90;;;;;;5067060;28;19928;-74
2023/02/11 11:56:22;;;;;;;;;;;8.50;99.90;;;;;;5070116;28;19981;-73
2023/02/11 11:58:49;;;;;;;;;;;8.60;99.90;;;;;;5063206;28;20019;-72
2023/02/11 12:01:23;;;;;;;;;;;8.60;99.90;;;;;;5067360;28;19925;-73
2023/02/11 12:04:12;;;;;;;;;;;8.60;99.90;;;;;;5067005;28;19937;-73
2023/02/11 12:06:41;;;;;;;;;;;8.60;99.90;;;;;;5069072;28;19925;-73
2023/02/11 12:09:12;;;;;;;;;;;8.70;99.90;;;;;;5064470;28;19929;-73
2023/02/11 12:11:48;;;;;;;;;;;8.70;99.90;;;;;;5069055;28;19925;-73
2023/02/11 12:14:20;;;;;;;;;;;8.70;99.90;;;;;;5067513;28;19948;-72
2023/02/11 12:16:53;;;;;;;;;;;8.70;99.90;;;;;;5067820;28;19959;-74
2023/02/11 12:19:35;;;;;;;;;;;8.70;99.90;;;;;;5072271;28;20007;-73
2023/02/11 12:22:07;;;;;;;;;;;8.80;99.90;;;;;;5073159;28;20025;-73
2023/02/11 12:24:48;;;;;;;;;;;8.80;99.90;;;;;;5069988;28;19924;-73
2023/02/11 12:27:20;;;;;;;;;;;8.80;99.90;;;;;;5068125;28;19925;-71
2023/02/11 12:29:54;;;;;;;;;;;8.80;99.90;;;;;;5072362;28;20292;-73
2023/02/11 12:32:26;;;;;;;;;;;8.80;99.90;;;;;;5069920;28;19928;-74
2023/02/11 12:35:10;;;;;;;;;;;8.80;99.90;;;;;;5072363;28;20019;-72
2023/02/11 12:37:42;;;;;;;;;;;8.80;99.90;;;;;;5064015;28;19925;-74
2023/02/11 12:40:13;;;;;;;;;;;8.80;99.90;;;;;;5070826;28;20295;-73
2023/02/11 12:45:38;;;;;;;;;;;8.90;99.90;;;;;;5065988;28;19931;-73
2023/02/11 12:48:12;;;;;;;;;;;8.90;99.90;;;;;;5070111;28;19928;-73
2023/02/11 12:50:43;;;;;;;;;;;8.90;99.90;;;;;;5069424;28;19930;-74
2023/02/11 12:53:20;;;;;;;;;;;8.90;99.90;;;;;;5068369;28;20019;-73
2023/02/11 12:55:48;;;;;;;;;;;8.90;99.90;;;;;;5054818;28;19925;-74
2023/02/11 12:58:19;;;;;;;;;;;8.90;99.90;;;;;;5072742;28;19982;-72
2023/02/11 13:00:48;;;;;;;;;;;8.90;99.90;;;;;;5068255;28;19924;-74
2023/02/11 13:03:18;;;;;;;;;;;9.00;99.90;;;;;;5072193;28;20395;-76
2023/02/11 13:05:48;;;;;;;;;;;9.00;99.90;;;;;;5068610;28;19931;-74
2023/02/11 13:08:17;;;;;;;;;;;9.00;99.90;;;;;;5067459;28;19928;-74
2023/02/11 13:10:47;;;;;;;;;;;9.00;99.90;;;;;;5068453;28;19928;-74
2023/02/11 13:13:18;;;;;;;;;;;9.10;99.90;;;;;;5072161;28;20007;-73
2023/02/11 13:15:48;;;;;;;;;;;9.00;99.90;;;;;;5068473;28;20027;-73
2023/02/11 13:18:23;;;;;;;;;;;9.00;99.90;;;;;;5072486;28;19929;-74
2023/02/11 13:20:53;;;;;;;;;;;9.00;99.90;;;;;;5067226;28;20015;-73
2023/02/11 13:23:24;;;;;;;;;;;9.00;99.90;;;;;;5062884;28;19928;-74
2023/02/11 13:25:54;;;;;;;;;;;9.00;99.90;;;;;;5067494;28;19931;-73
2023/02/11 13:28:25;;;;;;;;;;;9.00;99.90;;;;;;5068975;28;19929;-74
2023/02/11 13:31:01;;;;;;;;;;;9.00;99.90;;;;;;5070188;28;20294;-73
2023/02/11 13:33:32;;;;;;;;;;;9.00;99.90;;;;;;5071730;28;19940;-75
2023/02/11 13:36:17;;;;;;;;;;;9.00;99.90;;;;;;5069759;28;19924;-76
2023/02/11 13:39:08;;;;;;;;;;;9.00;99.90;;;;;;5069177;28;19924;-76
2023/02/11 13:41:36;;;;;;;;;;;9.00;99.90;;;;;;5040883;28;19934;-76
2023/02/11 13:44:05;;;;;;;;;;;9.00;99.90;;;;;;5066664;28;20012;-76
2023/02/11 13:46:52;;;;;;;;;;;9.00;99.90;;;;;;5071319;28;19963;-76
2023/02/11 13:49:23;;;;;;;;;;;9.00;99.90;;;;;;5070153;28;19925;-74
2023/02/11 13:51:50;;;;;;;;;;;9.00;99.90;;;;;;5069037;28;20019;-73
2023/02/11 13:54:22;;;;;;;;;;;9.00;99.90;;;;;;5070803;28;19947;-73
2023/02/11 13:57:15;;;;;;;;;;;9.00;99.90;;;;;;5070368;28;19928;-74
2023/02/11 13:59:46;;;;;;;;;;;9.00;99.90;;;;;;5070311;28;20303;-74
2023/02/11 14:11:00;;;;;;;;;;;9.00;99.90;;;;;;5070036;28;19947;-72
2023/02/11 14:13:27;;;;;;;;;;;9.00;99.90;;;;;;5068897;28;19931;-73
2023/02/11 14:16:07;;;;;;;;;;;9.00;99.90;;;;;;5070951;28;19925;-74
2023/02/11 14:18:38;;;;;;;;;;;9.10;99.90;;;;;;5070072;28;19924;-74
2023/02/11 14:21:11;;;;;;;;;;;9.10;99.90;;;;;;5064704;28;19931;-74
2023/02/11 14:23:39;;;;;;;;;;;9.10;99.90;;;;;;5069090;28;19924;-74
2023/02/11 14:26:20;;;;;;;;;;;9.00;99.90;;;;;;5070662;28;20416;-75
2023/02/11 14:28:48;;;;;;;;;;;9.10;99.90;;;;;;5069516;28;19924;-74
2023/02/11 14:31:18;;;;;;;;;;;9.00;99.90;;;;;;5064456;28;19975;-74
2023/02/11 14:33:56;;;;;;;;;;;9.00;99.90;;;;;;5065679;28;20294;-74
2023/02/11 14:36:35;;;;;;;;;;;9.00;99.90;;;;;;5058327;28;19971;-74
2023/02/11 14:39:06;;;;;;;;;;;9.00;99.90;;;;;;5066018;28;20020;-74
2023/02/11 14:41:35;;;;;;;;;;;9.00;99.90;;;;;;5074634;28;20036;-75
2023/02/11 14:44:04;;;;;;;;;;;9.00;99.90;;;;;;5067101;28;20391;-74
2023/02/11 14:46:32;;;;;;;;;;;9.00;99.90;;;;;;5063922;28;19924;-73
2023/02/11 14:49:00;;;;;;;;;;;9.00;99.90;;;;;;5051530;28;20314;-73
2023/02/11 14:51:28;;;;;;;;;;;9.00;99.90;;;;;;5062881;28;20371;-73
2023/02/11 14:53:59;;;;;;;;;;;9.00;99.90;;;;;;5064255;28;20006;-73
2023/02/11 14:56:27;;;;;;;;;;;9.00;99.90;;;;;;5063821;28;19924;-74
2023/02/11 14:58:54;;;;;;;;;;;9.00;99.90;;;;;;5068353;28;19932;-73
2023/02/11 15:01:27;;;;;;;;;;;9.00;99.90;;;;;;5066651;28;20397;-73